sensor_id;sensor_type;location;lat;lon;timestamp;temperature;humidity
23116;DHT22;11727;52.134;5.052;2023-12-22T00:00:32;6.40;99.90
23116;DHT22;11727;52.134;5.052;2023-12-22T00:02:58;6.50;99.90
23116;DHT22;11727;52.134;5.052;2023-12-22T00:05:23;6.50;99.90
23116;DHT22;11727;52.134;5.052;2023-12-22T00:07:49;6.50;99.90
23116;DHT22;11727;52.134;5.052;2023-12-22T00:10:14;6.50;99.90
23116;DHT22;11727;52.134;5.052;2023-12-22T00:12:40;6.60;99.90
23116;DHT22;11727;52.134;5.052;2023-12-22T00:15:06;6.60;99.90
23116;DHT22;11727;52.134;5.052;2023-12-22T00:17:32;6.60;99.90
23116;DHT22;11727;52.134;5.052;2023-12-22T00:19:57;6.60;99.90
23116;DHT22;11727;52.134;5.052;2023-12-22T00:22:25;6.50;99.90
23116;DHT22;11727;52.134;5.052;2023-12-22T00:24:51;6.50;99.90
23116;DHT22;11727;52.134;5.052;2023-12-22T00:27:17;6.50;99.90
23116;DHT22;11727;52.134;5.052;2023-12-22T00:29:42;6.40;99.90
23116;DHT22;11727;52.134;5.052;2023-12-22T00:32:10;6.30;99.90
23116;DHT22;11727;52.134;5.052;2023-12-22T00:34:36;6.20;99.90
23116;DHT22;11727;52.134;5.052;2023-12-22T00:37:02;6.00;99.90
23116;DHT22;11727;52.134;5.052;2023-12-22T00:39:30;5.90;99.90
23116;DHT22;11727;52.134;5.052;2023-12-22T00:41:56;5.80;99.90
23116;DHT22;11727;52.134;5.052;2023-12-22T00:44:21;5.70;99.90
23116;DHT22;11727;52.134;5.052;2023-12-22T00:46:49;5.70;99.90
23116;DHT22;11727;52.134;5.052;2023-12-22T00:49:15;5.60;99.90
23116;DHT22;11727;52.134;5.052;2023-12-22T00:51:41;5.60;99.90
23116;DHT22;11727;52.134;5.052;2023-12-22T00:54:06;5.70;99.90
23116;DHT22;11727;52.134;5.052;2023-12-22T00:56:32;5.70;99.90
23116;DHT22;11727;52.134;5.052;2023-12-22T00:58:57;5.70;99.90
23116;DHT22;11727;52.134;5.052;2023-12-22T01:01:23;5.70;99.90
23116;DHT22;11727;52.134;5.052;2023-12-22T01:03:49;5.80;99.90
23116;DHT22;11727;52.134;5.052;2023-12-22T01:06:14;5.80;99.90
23116;DHT22;11727;52.134;5.052;2023-12-22T01:08:40;5.80;99.90
23116;DHT22;11727;52.134;5.052;2023-12-22T01:11:06;5.80;99.90
23116;DHT22;11727;52.134;5.052;2023-12-22T01:13:31;5.80;99.90
23116;DHT22;11727;52.134;5.052;2023-12-22T01:15:57;5.80;99.90
23116;DHT22;11727;52.134;5.052;2023-12-22T01:18:22;5.80;99.90
23116;DHT22;11727;52.134;5.052;2023-12-22T01:20:57;5.80;99.90
23116;DHT22;11727;52.134;5.052;2023-12-22T01:23:23;5.90;99.90
23116;DHT22;11727;52.134;5.052;2023-12-22T01:25:50;5.90;99.90
23116;DHT22;11727;52.134;5.052;2023-12-22T01:28:18;5.90;99.90
23116;DHT22;11727;52.134;5.052;2023-12-22T01:30:44;5.90;99.90
23116;DHT22;11727;52.134;5.052;2023-12-22T01:33:09;5.90;99.90
23116;DHT22;11727;52.134;5.052;2023-12-22T01:35:35;5.90;99.90
23116;DHT22;11727;52.134;5.052;2023-12-22T01:38:00;6.00;99.90
23116;DHT22;11727;52.134;5.052;2023-12-22T01:40:26;6.00;99.90
23116;DHT22;11727;52.134;5.052;2023-12-22T01:42:52;6.00;99.90
23116;DHT22;11727;52.134;5.052;2023-12-22T01:45:17;6.00;99.90
23116;DHT22;11727;52.134;5.052;2023-12-22T01:47:45;6.00;99.90
23116;DHT22;11727;52.134;5.052;2023-12-22T01:50:12;6.10;99.90
23116;DHT22;11727;52.134;5.052;2023-12-22T01:52:39;6.10;99.90
23116;DHT22;11727;52.134;5.052;2023-12-22T01:55:06;6.10;99.90
23116;DHT22;11727;52.134;5.052;2023-12-22T01:57:33;6.10;99.90
23116;DHT22;11727;52.134;5.052;2023-12-22T02:00:00;6.10;99.90
23116;DHT22;11727;52.134;5.052;2023-12-22T02:02:26;6.10;99.90
23116;DHT22;11727;52.134;5.052;2023-12-22T02:04:52;6.00;99.90
23116;DHT22;11727;52.134;5.052;2023-12-22T02:07:18;6.00;99.90
23116;DHT22;11727;52.134;5.052;2023-12-22T02:09:44;6.00;99.90
23116;DHT22;11727;52.134;5.052;2023-12-22T02:12:10;6.00;99.90
23116;DHT22;11727;52.134;5.052;2023-12-22T02:14:36;6.00;99.90
23116;DHT22;11727;52.134;5.052;2023-12-22T02:19:42;6.00;99.90
23116;DHT22;11727;52.134;5.052;2023-12-22T02:22:09;6.10;99.90
23116;DHT22;11727;52.134;5.052;2023-12-22T02:24:35;6.20;99.90
23116;DHT22;11727;52.134;5.052;2023-12-22T02:29:34;6.20;99.90
23116;DHT22;11727;52.134;5.052;2023-12-22T02:32:10;6.30;99.90
23116;DHT22;11727;52.134;5.052;2023-12-22T02:34:42;6.30;99.90
23116;DHT22;11727;52.134;5.052;2023-12-22T02:37:09;6.40;99.90
23116;DHT22;11727;52.134;5.052;2023-12-22T02:39:36;6.40;99.90
23116;DHT22;11727;52.134;5.052;2023-12-22T02:42:04;6.50;99.90
23116;DHT22;11727;52.134;5.052;2023-12-22T02:44:31;6.50;99.90
23116;DHT22;11727;52.134;5.052;2023-12-22T02:46:57;6.60;99.90
23116;DHT22;11727;52.134;5.052;2023-12-22T02:49:22;6.60;99.90
23116;DHT22;11727;52.134;5.052;2023-12-22T02:51:48;6.50;99.90
23116;DHT22;11727;52.134;5.052;2023-12-22T02:54:14;6.60;99.90
23116;DHT22;11727;52.134;5.052;2023-12-22T02:56:39;6.60;99.90
23116;DHT22;11727;52.134;5.052;2023-12-22T02:59:08;6.60;99.90
23116;DHT22;11727;52.134;5.052;2023-12-22T03:01:42;6.70;99.90
23116;DHT22;11727;52.134;5.052;2023-12-22T03:04:10;6.70;99.90
23116;DHT22;11727;52.134;5.052;2023-12-22T03:06:35;6.70;99.90
23116;DHT22;11727;52.134;5.052;2023-12-22T03:09:01;6.80;99.90
23116;DHT22;11727;52.134;5.052;2023-12-22T03:11:28;6.80;99.90
23116;DHT22;11727;52.134;5.052;2023-12-22T03:13:53;6.80;99.90
23116;DHT22;11727;52.134;5.052;2023-12-22T03:16:19;6.90;99.90
23116;DHT22;11727;52.134;5.052;2023-12-22T03:18:44;6.90;99.90
23116;DHT22;11727;52.134;5.052;2023-12-22T03:21:19;7.00;99.90
23116;DHT22;11727;52.134;5.052;2023-12-22T03:23:45;7.00;99.90
23116;DHT22;11727;52.134;5.052;2023-12-22T03:26:11;7.10;99.90
23116;DHT22;11727;52.134;5.052;2023-12-22T03:28:37;7.10;99.90
23116;DHT22;11727;52.134;5.052;2023-12-22T03:31:03;7.20;99.90
23116;DHT22;11727;52.134;5.052;2023-12-22T03:33:29;7.30;99.90
23116;DHT22;11727;52.134;5.052;2023-12-22T03:35:57;7.40;99.90
23116;DHT22;11727;52.134;5.052;2023-12-22T03:38:27;7.50;99.90
23116;DHT22;11727;52.134;5.052;2023-12-22T03:40:57;7.50;99.90
23116;DHT22;11727;52.134;5.052;2023-12-22T03:43:25;7.60;99.90
23116;DHT22;11727;52.134;5.052;2023-12-22T03:45:53;7.60;99.90
23116;DHT22;11727;52.134;5.052;2023-12-22T03:48:19;7.60;99.90
23116;DHT22;11727;52.134;5.052;2023-12-22T03:50:45;7.60;99.90
23116;DHT22;11727;52.134;5.052;2023-12-22T03:53:13;7.70;99.90
23116;DHT22;11727;52.134;5.052;2023-12-22T03:55:41;7.80;99.90
23116;DHT22;11727;52.134;5.052;2023-12-22T03:58:07;7.80;99.90
23116;DHT22;11727;52.134;5.052;2023-12-22T04:00:33;7.80;99.90
23116;DHT22;11727;52.134;5.052;2023-12-22T04:02:59;7.70;99.90
23116;DHT22;11727;52.134;5.052;2023-12-22T04:05:25;7.70;99.90
23116;DHT22;11727;52.134;5.052;2023-12-22T04:07:51;7.70;99.90
23116;DHT22;11727;52.134;5.052;2023-12-22T04:10:19;7.70;99.90
23116;DHT22;11727;52.134;5.052;2023-12-22T04:12:49;7.70;99.90
23116;DHT22;11727;52.134;5.052;2023-12-22T04:15:15;7.70;99.90
23116;DHT22;11727;52.134;5.052;2023-12-22T04:17:40;7.70;99.90
23116;DHT22;11727;52.134;5.052;2023-12-22T04:20:08;7.60;99.90
23116;DHT22;11727;52.134;5.052;2023-12-22T04:22:36;7.60;99.90
23116;DHT22;11727;52.134;5.052;2023-12-22T04:25:02;7.60;99.90
23116;DHT22;11727;52.134;5.052;2023-12-22T04:27:27;7.60;99.90
23116;DHT22;11727;52.134;5.052;2023-12-22T04:29:53;7.60;99.90
23116;DHT22;11727;52.134;5.052;2023-12-22T04:32:19;7.70;99.90
23116;DHT22;11727;52.134;5.052;2023-12-22T04:34:44;7.60;99.90
23116;DHT22;11727;52.134;5.052;2023-12-22T04:37:10;7.70;99.90
23116;DHT22;11727;52.134;5.052;2023-12-22T04:39:36;7.70;99.90
23116;DHT22;11727;52.134;5.052;2023-12-22T04:42:01;7.70;99.90
23116;DHT22;11727;52.134;5.052;2023-12-22T04:44:27;7.70;99.90
23116;DHT22;11727;52.134;5.052;2023-12-22T04:46:55;7.70;99.90
23116;DHT22;11727;52.134;5.052;2023-12-22T04:49:20;7.80;99.90
23116;DHT22;11727;52.134;5.052;2023-12-22T04:51:48;7.80;99.90
23116;DHT22;11727;52.134;5.052;2023-12-22T04:54:17;7.80;99.90
23116;DHT22;11727;52.134;5.052;2023-12-22T04:56:42;7.80;99.90
23116;DHT22;11727;52.134;5.052;2023-12-22T04:59:08;7.90;99.90
23116;DHT22;11727;52.134;5.052;2023-12-22T05:01:34;7.90;99.90
23116;DHT22;11727;52.134;5.052;2023-12-22T05:04:00;7.90;99.90
23116;DHT22;11727;52.134;5.052;2023-12-22T05:06:28;7.90;99.90
23116;DHT22;11727;52.134;5.052;2023-12-22T05:09:00;8.00;99.90
23116;DHT22;11727;52.134;5.052;2023-12-22T05:11:29;8.00;99.90
23116;DHT22;11727;52.134;5.052;2023-12-22T05:13:54;8.00;99.90
23116;DHT22;11727;52.134;5.052;2023-12-22T05:16:20;8.10;99.90
23116;DHT22;11727;52.134;5.052;2023-12-22T05:18:46;8.10;99.90
23116;DHT22;11727;52.134;5.052;2023-12-22T05:21:13;8.10;99.90
23116;DHT22;11727;52.134;5.052;2023-12-22T05:23:41;8.10;99.90
23116;DHT22;11727;52.134;5.052;2023-12-22T05:26:07;8.10;99.90
23116;DHT22;11727;52.134;5.052;2023-12-22T05:28:37;8.20;99.90
23116;DHT22;11727;52.134;5.052;2023-12-22T05:31:03;8.20;99.90
23116;DHT22;11727;52.134;5.052;2023-12-22T05:33:29;8.20;99.90
23116;DHT22;11727;52.134;5.052;2023-12-22T05:35:55;8.20;99.90
23116;DHT22;11727;52.134;5.052;2023-12-22T05:38:23;8.30;99.90
23116;DHT22;11727;52.134;5.052;2023-12-22T05:40:48;8.20;99.90
23116;DHT22;11727;52.134;5.052;2023-12-22T05:43:15;8.20;99.90
23116;DHT22;11727;52.134;5.052;2023-12-22T05:45:43;8.30;99.90
23116;DHT22;11727;52.134;5.052;2023-12-22T05:48:10;8.30;99.90
23116;DHT22;11727;52.134;5.052;2023-12-22T05:50:36;8.40;99.90
23116;DHT22;11727;52.134;5.052;2023-12-22T05:53:02;8.40;99.90
23116;DHT22;11727;52.134;5.052;2023-12-22T05:55:27;8.40;99.90
23116;DHT22;11727;52.134;5.052;2023-12-22T05:57:53;8.40;99.90
23116;DHT22;11727;52.134;5.052;2023-12-22T06:00:19;8.40;99.90
23116;DHT22;11727;52.134;5.052;2023-12-22T06:02:49;8.40;99.90
23116;DHT22;11727;52.134;5.052;2023-12-22T06:05:15;8.40;99.90
23116;DHT22;11727;52.134;5.052;2023-12-22T06:07:43;8.50;99.90
23116;DHT22;11727;52.134;5.052;2023-12-22T06:10:11;8.50;99.90
23116;DHT22;11727;52.134;5.052;2023-12-22T06:12:37;8.50;99.90
23116;DHT22;11727;52.134;5.052;2023-12-22T06:15:03;8.60;99.90
23116;DHT22;11727;52.134;5.052;2023-12-22T06:17:29;8.60;99.90
23116;DHT22;11727;52.134;5.052;2023-12-22T06:19:56;8.60;99.90
23116;DHT22;11727;52.134;5.052;2023-12-22T06:22:22;8.60;99.90
23116;DHT22;11727;52.134;5.052;2023-12-22T06:24:48;8.60;99.90
23116;DHT22;11727;52.134;5.052;2023-12-22T06:27:14;8.60;99.90
23116;DHT22;11727;52.134;5.052;2023-12-22T06:29:40;8.60;99.90
23116;DHT22;11727;52.134;5.052;2023-12-22T06:32:06;8.70;99.90
23116;DHT22;11727;52.134;5.052;2023-12-22T06:34:32;8.70;99.90
23116;DHT22;11727;52.134;5.052;2023-12-22T06:37:01;8.70;99.90
23116;DHT22;11727;52.134;5.052;2023-12-22T06:39:26;8.80;99.90
23116;DHT22;11727;52.134;5.052;2023-12-22T06:41:52;8.80;99.90
23116;DHT22;11727;52.134;5.052;2023-12-22T06:44:17;8.80;99.90
23116;DHT22;11727;52.134;5.052;2023-12-22T06:46:45;8.80;99.90
23116;DHT22;11727;52.134;5.052;2023-12-22T06:49:11;8.80;99.90
23116;DHT22;11727;52.134;5.052;2023-12-22T06:51:37;8.90;99.90
23116;DHT22;11727;52.134;5.052;2023-12-22T06:54:03;8.90;99.90
23116;DHT22;11727;52.134;5.052;2023-12-22T06:56:31;8.90;99.90
23116;DHT22;11727;52.134;5.052;2023-12-22T06:59:06;8.90;99.90
23116;DHT22;11727;52.134;5.052;2023-12-22T07:01:33;8.90;99.90
23116;DHT22;11727;52.134;5.052;2023-12-22T07:03:59;8.90;99.90
23116;DHT22;11727;52.134;5.052;2023-12-22T07:06:28;8.90;99.90
23116;DHT22;11727;52.134;5.052;2023-12-22T07:11:43;8.90;99.90
23116;DHT22;11727;52.134;5.052;2023-12-22T07:14:11;8.90;99.90
23116;DHT22;11727;52.134;5.052;2023-12-22T07:16:39;8.90;99.90
23116;DHT22;11727;52.134;5.052;2023-12-22T07:19:05;8.80;99.90
23116;DHT22;11727;52.134;5.052;2023-12-22T07:21:34;8.90;99.90
23116;DHT22;11727;52.134;5.052;2023-12-22T07:24:02;8.90;99.90
23116;DHT22;11727;52.134;5.052;2023-12-22T07:26:27;8.80;99.90
23116;DHT22;11727;52.134;5.052;2023-12-22T07:28:53;8.90;99.90
23116;DHT22;11727;52.134;5.052;2023-12-22T07:31:19;8.80;99.90
23116;DHT22;11727;52.134;5.052;2023-12-22T07:33:45;8.80;99.90
23116;DHT22;11727;52.134;5.052;2023-12-22T07:36:13;8.80;99.90
23116;DHT22;11727;52.134;5.052;2023-12-22T07:38:39;8.70;99.90
23116;DHT22;11727;52.134;5.052;2023-12-22T07:41:05;8.70;99.90
23116;DHT22;11727;52.134;5.052;2023-12-22T07:43:31;8.70;99.90
23116;DHT22;11727;52.134;5.052;2023-12-22T07:45:56;8.80;99.90
23116;DHT22;11727;52.134;5.052;2023-12-22T07:48:22;8.80;99.90
23116;DHT22;11727;52.134;5.052;2023-12-22T07:50:49;8.70;99.90
23116;DHT22;11727;52.134;5.052;2023-12-22T07:53:15;8.70;99.90
23116;DHT22;11727;52.134;5.052;2023-12-22T07:55:40;8.60;99.90
23116;DHT22;11727;52.134;5.052;2023-12-22T07:58:06;8.60;99.90
23116;DHT22;11727;52.134;5.052;2023-12-22T08:00:32;8.60;99.90
23116;DHT22;11727;52.134;5.052;2023-12-22T08:02:59;8.60;99.90
23116;DHT22;11727;52.134;5.052;2023-12-22T08:05:28;8.60;99.90
23116;DHT22;11727;52.134;5.052;2023-12-22T08:07:57;8.60;99.90
23116;DHT22;11727;52.134;5.052;2023-12-22T08:10:23;8.40;99.90
23116;DHT22;11727;52.134;5.052;2023-12-22T08:12:48;8.30;99.90
23116;DHT22;11727;52.134;5.052;2023-12-22T08:15:14;8.20;99.90
23116;DHT22;11727;52.134;5.052;2023-12-22T08:17:50;8.10;99.90
23116;DHT22;11727;52.134;5.052;2023-12-22T08:20:17;8.00;99.90
23116;DHT22;11727;52.134;5.052;2023-12-22T08:22:47;8.00;99.90
23116;DHT22;11727;52.134;5.052;2023-12-22T08:25:14;8.00;99.90
23116;DHT22;11727;52.134;5.052;2023-12-22T08:27:40;8.10;99.90
23116;DHT22;11727;52.134;5.052;2023-12-22T08:30:07;8.10;99.90
23116;DHT22;11727;52.134;5.052;2023-12-22T08:32:33;8.20;99.90
23116;DHT22;11727;52.134;5.052;2023-12-22T08:34:59;8.30;99.90
23116;DHT22;11727;52.134;5.052;2023-12-22T08:37:24;8.30;99.90
23116;DHT22;11727;52.134;5.052;2023-12-22T08:39:50;8.40;99.90
23116;DHT22;11727;52.134;5.052;2023-12-22T08:42:17;8.40;99.90
23116;DHT22;11727;52.134;5.052;2023-12-22T08:44:42;8.40;99.90
23116;DHT22;11727;52.134;5.052;2023-12-22T08:47:08;8.50;99.90
23116;DHT22;11727;52.134;5.052;2023-12-22T08:49:34;8.50;99.90
23116;DHT22;11727;52.134;5.052;2023-12-22T08:51:59;8.60;99.90
23116;DHT22;11727;52.134;5.052;2023-12-22T08:54:25;8.60;99.90
23116;DHT22;11727;52.134;5.052;2023-12-22T08:56:51;8.60;99.90
23116;DHT22;11727;52.134;5.052;2023-12-22T08:59:18;8.60;99.90
23116;DHT22;11727;52.134;5.052;2023-12-22T09:01:43;8.60;99.90
23116;DHT22;11727;52.134;5.052;2023-12-22T09:04:12;8.60;99.90
23116;DHT22;11727;52.134;5.052;2023-12-22T09:06:38;8.50;99.90
23116;DHT22;11727;52.134;5.052;2023-12-22T09:09:05;8.60;99.90
23116;DHT22;11727;52.134;5.052;2023-12-22T09:11:31;8.60;99.90
23116;DHT22;11727;52.134;5.052;2023-12-22T09:13:57;8.70;99.90
23116;DHT22;11727;52.134;5.052;2023-12-22T09:16:23;8.70;99.90
23116;DHT22;11727;52.134;5.052;2023-12-22T09:18:50;8.80;99.90
23116;DHT22;11727;52.134;5.052;2023-12-22T09:21:16;8.80;99.90
23116;DHT22;11727;52.134;5.052;2023-12-22T09:23:46;8.90;99.90
23116;DHT22;11727;52.134;5.052;2023-12-22T09:26:14;8.90;99.90
23116;DHT22;11727;52.134;5.052;2023-12-22T09:28:41;8.90;99.90
23116;DHT22;11727;52.134;5.052;2023-12-22T09:31:10;9.00;99.90
23116;DHT22;11727;52.134;5.052;2023-12-22T09:33:36;9.00;99.90
23116;DHT22;11727;52.134;5.052;2023-12-22T09:36:02;9.00;99.90
23116;DHT22;11727;52.134;5.052;2023-12-22T09:38:28;9.10;99.90
23116;DHT22;11727;52.134;5.052;2023-12-22T09:40:55;9.10;99.90
23116;DHT22;11727;52.134;5.052;2023-12-22T09:43:21;9.10;99.90
23116;DHT22;11727;52.134;5.052;2023-12-22T09:45:48;9.20;99.90
23116;DHT22;11727;52.134;5.052;2023-12-22T09:48:15;9.20;99.90
23116;DHT22;11727;52.134;5.052;2023-12-22T09:50:43;9.20;99.90
23116;DHT22;11727;52.134;5.052;2023-12-22T09:53:12;9.20;99.90
23116;DHT22;11727;52.134;5.052;2023-12-22T09:55:41;9.20;99.90
23116;DHT22;11727;52.134;5.052;2023-12-22T09:58:08;9.30;99.90
23116;DHT22;11727;52.134;5.052;2023-12-22T10:00:35;9.30;99.90
23116;DHT22;11727;52.134;5.052;2023-12-22T10:03:01;9.30;99.90
23116;DHT22;11727;52.134;5.052;2023-12-22T10:05:28;9.40;99.90
23116;DHT22;11727;52.134;5.052;2023-12-22T10:07:55;9.40;99.90
23116;DHT22;11727;52.134;5.052;2023-12-22T10:10:22;9.50;99.90
23116;DHT22;11727;52.134;5.052;2023-12-22T10:12:49;9.50;99.90
23116;DHT22;11727;52.134;5.052;2023-12-22T10:15:17;9.50;99.90
23116;DHT22;11727;52.134;5.052;2023-12-22T10:17:44;9.50;99.90
23116;DHT22;11727;52.134;5.052;2023-12-22T10:20:12;9.50;99.90
23116;DHT22;11727;52.134;5.052;2023-12-22T10:22:37;9.50;99.90
23116;DHT22;11727;52.134;5.052;2023-12-22T10:25:03;9.50;99.90
23116;DHT22;11727;52.134;5.052;2023-12-22T10:27:32;9.60;99.90
23116;DHT22;11727;52.134;5.052;2023-12-22T10:29:58;9.60;99.90
23116;DHT22;11727;52.134;5.052;2023-12-22T10:32:24;9.60;99.90
23116;DHT22;11727;52.134;5.052;2023-12-22T10:34:52;9.60;99.90
23116;DHT22;11727;52.134;5.052;2023-12-22T10:37:18;9.60;99.90
23116;DHT22;11727;52.134;5.052;2023-12-22T10:39:44;9.60;99.90
23116;DHT22;11727;52.134;5.052;2023-12-22T10:42:14;9.60;99.90
23116;DHT22;11727;52.134;5.052;2023-12-22T10:44:40;9.60;99.90
23116;DHT22;11727;52.134;5.052;2023-12-22T10:47:07;9.60;99.90
23116;DHT22;11727;52.134;5.052;2023-12-22T10:49:32;9.60;99.90
23116;DHT22;11727;52.134;5.052;2023-12-22T10:51:59;9.60;99.90
23116;DHT22;11727;52.134;5.052;2023-12-22T10:54:27;9.60;99.90
23116;DHT22;11727;52.134;5.052;2023-12-22T10:57:00;9.70;99.90
23116;DHT22;11727;52.134;5.052;2023-12-22T10:59:38;9.70;99.90
23116;DHT22;11727;52.134;5.052;2023-12-22T11:02:19;9.70;99.90
23116;DHT22;11727;52.134;5.052;2023-12-22T11:07:23;9.70;99.90
23116;DHT22;11727;52.134;5.052;2023-12-22T11:09:51;9.70;99.90
23116;DHT22;11727;52.134;5.052;2023-12-22T11:12:19;9.70;99.90
23116;DHT22;11727;52.134;5.052;2023-12-22T11:14:48;9.80;99.90
23116;DHT22;11727;52.134;5.052;2023-12-22T11:20:13;9.80;99.90
23116;DHT22;11727;52.134;5.052;2023-12-22T11:22:40;9.90;99.90
23116;DHT22;11727;52.134;5.052;2023-12-22T11:25:34;9.90;99.90
23116;DHT22;11727;52.134;5.052;2023-12-22T11:28:02;9.90;99.90
23116;DHT22;11727;52.134;5.052;2023-12-22T11:30:29;9.90;99.90
23116;DHT22;11727;52.134;5.052;2023-12-22T11:32:59;9.90;99.90
23116;DHT22;11727;52.134;5.052;2023-12-22T11:35:27;10.00;99.90
23116;DHT22;11727;52.134;5.052;2023-12-22T11:37:53;10.00;99.90
23116;DHT22;11727;52.134;5.052;2023-12-22T11:40:21;10.00;99.90
23116;DHT22;11727;52.134;5.052;2023-12-22T11:42:49;10.00;99.90
23116;DHT22;11727;52.134;5.052;2023-12-22T11:45:17;10.00;99.90
23116;DHT22;11727;52.134;5.052;2023-12-22T11:47:53;10.00;99.90
23116;DHT22;11727;52.134;5.052;2023-12-22T11:50:28;10.10;99.90
23116;DHT22;11727;52.134;5.052;2023-12-22T11:52:55;10.10;99.90
23116;DHT22;11727;52.134;5.052;2023-12-22T11:56:01;10.10;99.90
23116;DHT22;11727;52.134;5.052;2023-12-22T11:58:45;10.20;99.90
23116;DHT22;11727;52.134;5.052;2023-12-22T12:01:21;10.20;99.90
23116;DHT22;11727;52.134;5.052;2023-12-22T12:03:52;10.20;99.90
23116;DHT22;11727;52.134;5.052;2023-12-22T12:09:00;10.20;99.90
23116;DHT22;11727;52.134;5.052;2023-12-22T12:14:22;10.30;99.90
23116;DHT22;11727;52.134;5.052;2023-12-22T12:17:01;10.30;99.90
23116;DHT22;11727;52.134;5.052;2023-12-22T12:19:29;10.30;99.90
23116;DHT22;11727;52.134;5.052;2023-12-22T12:21:55;10.30;99.90
23116;DHT22;11727;52.134;5.052;2023-12-22T12:24:20;10.30;99.90
23116;DHT22;11727;52.134;5.052;2023-12-22T12:26:47;10.20;99.90
23116;DHT22;11727;52.134;5.052;2023-12-22T12:29:13;10.20;99.90
23116;DHT22;11727;52.134;5.052;2023-12-22T12:31:41;10.20;99.90
23116;DHT22;11727;52.134;5.052;2023-12-22T12:34:09;10.20;99.90
23116;DHT22;11727;52.134;5.052;2023-12-22T12:36:36;10.20;99.90
23116;DHT22;11727;52.134;5.052;2023-12-22T12:39:14;10.20;99.90
23116;DHT22;11727;52.134;5.052;2023-12-22T12:41:43;10.20;99.90
23116;DHT22;11727;52.134;5.052;2023-12-22T12:44:12;10.30;99.90
23116;DHT22;11727;52.134;5.052;2023-12-22T12:46:40;10.30;99.90
23116;DHT22;11727;52.134;5.052;2023-12-22T12:49:10;10.30;99.90
23116;DHT22;11727;52.134;5.052;2023-12-22T12:51:47;10.40;99.90
23116;DHT22;11727;52.134;5.052;2023-12-22T12:54:13;10.30;99.90
23116;DHT22;11727;52.134;5.052;2023-12-22T12:59:13;10.40;99.90
23116;DHT22;11727;52.134;5.052;2023-12-22T13:01:46;10.40;99.90
23116;DHT22;11727;52.134;5.052;2023-12-22T13:04:14;10.50;99.90
23116;DHT22;11727;52.134;5.052;2023-12-22T13:06:50;10.40;99.90
23116;DHT22;11727;52.134;5.052;2023-12-22T13:09:17;10.40;99.90
23116;DHT22;11727;52.134;5.052;2023-12-22T13:11:43;10.40;99.90
23116;DHT22;11727;52.134;5.052;2023-12-22T13:14:11;10.40;99.90
23116;DHT22;11727;52.134;5.052;2023-12-22T13:16:40;10.40;99.90
23116;DHT22;11727;52.134;5.052;2023-12-22T13:19:08;10.40;99.90
23116;DHT22;11727;52.134;5.052;2023-12-22T13:21:34;10.50;99.90
23116;DHT22;11727;52.134;5.052;2023-12-22T13:24:12;10.50;99.90
23116;DHT22;11727;52.134;5.052;2023-12-22T13:26:39;10.50;99.90
23116;DHT22;11727;52.134;5.052;2023-12-22T13:29:09;10.40;99.90
23116;DHT22;11727;52.134;5.052;2023-12-22T13:31:42;10.40;99.90
23116;DHT22;11727;52.134;5.052;2023-12-22T13:34:12;10.40;99.90
23116;DHT22;11727;52.134;5.052;2023-12-22T13:36:40;10.40;99.90
23116;DHT22;11727;52.134;5.052;2023-12-22T13:39:10;10.40;99.90
23116;DHT22;11727;52.134;5.052;2023-12-22T13:41:41;10.50;99.90
23116;DHT22;11727;52.134;5.052;2023-12-22T13:44:11;10.50;99.90
23116;DHT22;11727;52.134;5.052;2023-12-22T13:46:37;10.50;99.90
23116;DHT22;11727;52.134;5.052;2023-12-22T13:49:09;10.50;99.90
23116;DHT22;11727;52.134;5.052;2023-12-22T13:51:45;10.50;99.90
23116;DHT22;11727;52.134;5.052;2023-12-22T13:54:13;10.50;99.90
23116;DHT22;11727;52.134;5.052;2023-12-22T13:56:39;10.50;99.90
23116;DHT22;11727;52.134;5.052;2023-12-22T13:59:06;10.50;99.90
23116;DHT22;11727;52.134;5.052;2023-12-22T14:01:32;10.50;99.90
23116;DHT22;11727;52.134;5.052;2023-12-22T14:03:58;10.50;99.90
23116;DHT22;11727;52.134;5.052;2023-12-22T14:06:26;10.50;99.90
23116;DHT22;11727;52.134;5.052;2023-12-22T14:08:52;10.50;99.90
23116;DHT22;11727;52.134;5.052;2023-12-22T14:11:18;10.50;99.90
23116;DHT22;11727;52.134;5.052;2023-12-22T14:13:43;10.50;99.90
23116;DHT22;11727;52.134;5.052;2023-12-22T14:16:09;10.50;99.90
23116;DHT22;11727;52.134;5.052;2023-12-22T14:18:35;10.50;99.90
23116;DHT22;11727;52.134;5.052;2023-12-22T14:21:01;10.50;99.90
23116;DHT22;11727;52.134;5.052;2023-12-22T14:23:29;10.60;99.90
23116;DHT22;11727;52.134;5.052;2023-12-22T14:25:54;10.50;99.90
23116;DHT22;11727;52.134;5.052;2023-12-22T14:28:20;10.50;99.90
23116;DHT22;11727;52.134;5.052;2023-12-22T14:30:46;10.50;99.90
23116;DHT22;11727;52.134;5.052;2023-12-22T14:33:11;10.50;99.90
23116;DHT22;11727;52.134;5.052;2023-12-22T14:35:37;10.50;99.90
23116;DHT22;11727;52.134;5.052;2023-12-22T14:38:03;10.50;99.90
23116;DHT22;11727;52.134;5.052;2023-12-22T14:40:29;10.50;99.90
23116;DHT22;11727;52.134;5.052;2023-12-22T14:42:54;10.50;99.90
23116;DHT22;11727;52.134;5.052;2023-12-22T14:45:20;10.50;99.90
23116;DHT22;11727;52.134;5.052;2023-12-22T14:47:46;10.40;99.90
23116;DHT22;11727;52.134;5.052;2023-12-22T14:50:11;10.30;99.90
23116;DHT22;11727;52.134;5.052;2023-12-22T14:52:37;10.30;99.90
23116;DHT22;11727;52.134;5.052;2023-12-22T14:55:03;10.30;99.90
23116;DHT22;11727;52.134;5.052;2023-12-22T14:57:29;10.40;99.90
23116;DHT22;11727;52.134;5.052;2023-12-22T14:59:55;10.30;99.90
23116;DHT22;11727;52.134;5.052;2023-12-22T15:02:22;10.40;99.90
23116;DHT22;11727;52.134;5.052;2023-12-22T15:04:47;10.40;99.90
23116;DHT22;11727;52.134;5.052;2023-12-22T15:07:17;10.40;99.90
23116;DHT22;11727;52.134;5.052;2023-12-22T15:09:43;10.40;99.90
23116;DHT22;11727;52.134;5.052;2023-12-22T15:12:10;10.40;99.90
23116;DHT22;11727;52.134;5.052;2023-12-22T15:14:36;10.50;99.90
23116;DHT22;11727;52.134;5.052;2023-12-22T15:17:02;10.50;99.90
23116;DHT22;11727;52.134;5.052;2023-12-22T15:19:27;10.50;99.90
23116;DHT22;11727;52.134;5.052;2023-12-22T15:21:53;10.50;99.90
23116;DHT22;11727;52.134;5.052;2023-12-22T15:24:19;10.50;99.90
23116;DHT22;11727;52.134;5.052;2023-12-22T15:26:45;10.60;99.90
23116;DHT22;11727;52.134;5.052;2023-12-22T15:29:10;10.60;99.90
23116;DHT22;11727;52.134;5.052;2023-12-22T15:31:36;10.60;99.90
23116;DHT22;11727;52.134;5.052;2023-12-22T15:34:02;10.50;99.90
23116;DHT22;11727;52.134;5.052;2023-12-22T15:36:28;10.50;99.90
23116;DHT22;11727;52.134;5.052;2023-12-22T15:38:54;10.40;99.90
23116;DHT22;11727;52.134;5.052;2023-12-22T15:41:20;10.50;99.90
23116;DHT22;11727;52.134;5.052;2023-12-22T15:43:46;10.50;99.90
23116;DHT22;11727;52.134;5.052;2023-12-22T15:46:11;10.50;99.90
23116;DHT22;11727;52.134;5.052;2023-12-22T15:48:37;10.50;99.90
23116;DHT22;11727;52.134;5.052;2023-12-22T15:51:07;10.60;99.90
23116;DHT22;11727;52.134;5.052;2023-12-22T15:53:34;10.50;99.90
23116;DHT22;11727;52.134;5.052;2023-12-22T15:56:12;10.50;99.90
23116;DHT22;11727;52.134;5.052;2023-12-22T15:58:40;10.60;99.90
23116;DHT22;11727;52.134;5.052;2023-12-22T16:01:06;10.60;99.90
23116;DHT22;11727;52.134;5.052;2023-12-22T16:03:32;10.60;99.90